METAR Data
IDs: Format: Raw Decoded Include TAF

Data at: 0849 UTC 03 Aug 2021

KOAK 030753Z 29009KT 10SM BKN007 14/12 A3006 RMK AO2 SLP179 T01440122 402330139
KOAK 030745Z 30010KT 10SM BKN007 14/12 A3007 RMK AO2 T01440122
KOAK 030653Z 30009KT 10SM FEW008 14/12 A3006 RMK AO2 SLP179 T01440122
KOAK 030553Z 28014KT 10SM FEW008 15/12 A3006 RMK AO2 SLP179 T01500122 10222 20150 51008
KOAK 030453Z 29013KT 10SM FEW008 FEW200 16/12 A3006 RMK AO2 SLP178 T01560117
KOAK 030353Z 29013KT 10SM FEW008 BKN200 17/12 A3005 RMK AO2 SLP174 T01720117
KOAK 030253Z 29014KT 10SM FEW017 BKN200 19/12 A3004 RMK AO2 SLP171 T01890122 55005
KOAK 030153Z 28013KT 10SM FEW017 FEW190 BKN200 20/13 A3004 RMK AO2 SLP170 T02000128
KOAK 030053Z 28014KT 10SM FEW020 FEW190 BKN200 21/13 A3005 RMK AO2 SLP175 T02110128
KOAK 022353Z 31012KT 10SM FEW190 BKN200 22/12 A3005 RMK AO2 SLP176 T02170122 10233 20194 56015
KOAK 022253Z 31013KT 10SM SCT200 23/13 A3006 RMK AO2 SLP179 T02280128
KOAK 022153Z 30011KT 10SM FEW020 SCT200 22/13 A3008 RMK AO2 SLP186 T02220128
KOAK 022053Z 30011KT 10SM FEW020 SCT200 22/12 A3010 RMK AO2 SLP191 T02220122 56010
KOAK 021953Z 30009KT 10SM FEW020 SCT200 22/12 A3010 RMK AO2 SLP193 T02170122
KOAK 021853Z 30008KT 10SM FEW020 SCT200 21/12 A3012 RMK AO2 SLP199 T02060117
KOAK 021753Z 31007KT 10SM FEW010 FEW019 SCT200 19/12 A3013 RMK AO2 SLP201 T01940122 10194 20156 58001
KOAK 021653Z 28005KT 10SM FEW012 SCT019 SCT200 18/12 A3013 RMK AO2 SLP202 T01830122
KOAK 021640Z 27008KT 10SM FEW012 SCT019 SCT200 18/12 A3013 RMK AO2 T01830122
KOAK 021553Z 30005KT 10SM BKN019 BKN180 17/12 A3013 RMK AO2 SLP203 T01720117
KOAK 021453Z 30006KT 10SM FEW008 BKN019 BKN180 17/12 A3013 RMK AO2 SLP202 T01670117 53015
KOAK 021353Z 29009KT 10SM FEW008 BKN019 BKN180 16/12 A3012 RMK AO2 SLP198 T01610117
KOAK 021253Z 30006KT 10SM BKN019 BKN180 16/12 A3010 RMK AO2 SLP191 T01560117
KOAK 021217Z 29006KT 10SM BKN019 BKN180 16/12 A3009 RMK AO2 T01560117
KOAK 021153Z 28008KT 10SM FEW016 SCT180 16/12 A3009 RMK AO2 SLP187 T01610117 10183 20161 56003
KOAK 021053Z 27006KT 10SM FEW016 17/12 A3009 RMK AO2 SLP187 T01670117
KOAK 020953Z 30006KT 10SM SCT018 16/12 A3009 RMK AO2 SLP187 T01610117
KOAK 020853Z 26007KT 10SM BKN018 17/12 A3009 RMK AO2 SLP190 T01720122 58001
KOAK 020753Z 27007KT 10SM SCT018 17/12 A3010 RMK AO2 SLP192 T01720122 402220156
KOAK 020653Z 30004KT 10SM SCT012 17/12 A3010 RMK AO2 SLP193 T01670122
KOAK 020553Z 29007KT 10SM FEW012 17/12 A3010 RMK AO2 SLP190 T01670122 10211 20167 51009
KOAK 020453Z 29007KT 10SM FEW012 17/12 A3009 RMK AO2 SLP189 T01670117
KOAK 020353Z 29010KT 10SM FEW012 FEW180 17/12 A3008 RMK AO2 SLP184 T01720117
KOAK 020253Z 28013KT 10SM FEW012 SCT180 18/12 A3007 RMK AO2 SLP181 T01830122 53003
KOAK 020153Z 30014KT 10SM FEW014 SCT180 19/12 A3005 RMK AO2 SLP176 T01940122
KOAK 020053Z 30015KT 10SM FEW014 FEW180 20/13 A3006 RMK AO2 SLP177 T02000128
KOAK 012353Z 28015KT 10SM FEW014 FEW120 FEW180 21/13 A3006 RMK AO2 SLP178 T02110128 10222 20183 58006
KOAK 012253Z 28015KT 10SM FEW012 FEW180 21/13 A3007 RMK AO2 SLP181 T02110128
KOAK 012153Z 29016KT 10SM FEW012 FEW180 22/13 A3007 RMK AO2 SLP183 T02220128
KOAK 012053Z 31014KT 10SM FEW012 FEW180 21/13 A3008 RMK AO2 SLP184 T02110128 56006